NSZ3871 LMML-EKBI
Flight info
| Callsign | NSZ3871 |
|---|---|
| Flight time | N/A |
| Altitude | 18000 |
| Route | GZO M622 ADEXI/N0440F340 DCT ROTUN DCT ELVIN DCT GIKIN/N0442F360 DCT UPONO DCT OKBIS DCT VERUN DCT GAVRA DCT BAGNO DCT PELEG DCT SUKOM DCT LUMAV DCT ALBET DCT VADIK DCT DIKEM DCT SUMIR DCT NAXAV DCT EKPIS DCT BRENO DCT KONIN DCT KEMES M726 ANELA DCT KUMER DCT ELSOB/N0443F370 Y348 OMWEG M105 AMRAK DCT LOKSA |
| Aircraft | A320/M-SDE3FGHIRWY/LB1 |
Departure
| Time | 2026-05-06 18:04 |
|---|---|
| Airport | Malta International Airport (LMML) |
Arrival
| Time | N/A |
|---|---|
| Airport | Billund Airport (EKBI) |
| Time | Latitude | Longitude | Altitude | Speed | Heading |
|---|---|---|---|---|---|
| 2026-05-06 17:47 | 35.84799 | 14.49307 | 259 ft | 0 kts | 224° |
| 2026-05-06 17:58 | 35.84794 | 14.49301 | 258 ft | 4 kts | 224° |
| 2026-05-06 17:59 | 35.84780 | 14.49261 | 258 ft | 7 kts | 269° |
| 2026-05-06 17:59 | 35.84812 | 14.49209 | 258 ft | 9 kts | 315° |
| 2026-05-06 17:59 | 35.84866 | 14.49144 | 258 ft | 14 kts | 315° |
| 2026-05-06 17:59 | 35.84948 | 14.49033 | 258 ft | 21 kts | 304° |
| 2026-05-06 18:00 | 35.85026 | 14.48871 | 259 ft | 22 kts | 304° |
| 2026-05-06 18:00 | 35.85108 | 14.48725 | 265 ft | 19 kts | 308° |
| 2026-05-06 18:00 | 35.85211 | 14.48639 | 271 ft | 17 kts | 338° |
| 2026-05-06 18:00 | 35.85313 | 14.48571 | 272 ft | 17 kts | 316° |
| 2026-05-06 18:01 | 35.85395 | 14.48461 | 274 ft | 18 kts | 315° |
| 2026-05-06 18:01 | 35.85486 | 14.48349 | 272 ft | 19 kts | 315° |
| 2026-05-06 18:01 | 35.85581 | 14.48231 | 274 ft | 18 kts | 314° |
| 2026-05-06 18:01 | 35.85658 | 14.48164 | 272 ft | 12 kts | 292° |
| 2026-05-06 18:02 | 35.85658 | 14.48073 | 272 ft | 10 kts | 266° |
| 2026-05-06 18:02 | 35.85661 | 14.47975 | 272 ft | 12 kts | 272° |
| 2026-05-06 18:02 | 35.85635 | 14.47922 | 272 ft | 7 kts | 208° |
| 2026-05-06 18:02 | 35.85590 | 14.47942 | 272 ft | 3 kts | 136° |
| 2026-05-06 18:03 | 35.85588 | 14.47945 | 272 ft | 0 kts | 136° |
| 2026-05-06 18:03 | 35.85471 | 14.48092 | 273 ft | 58 kts | 134° |
| 2026-05-06 18:03 | 35.85024 | 14.48649 | 265 ft | 121 kts | 134° |
| 2026-05-06 18:04 | 35.84320 | 14.49527 | 390 ft | 158 kts | 136° |
| 2026-05-06 18:04 | 35.83533 | 14.50508 | 971 ft | 161 kts | 132° |
| 2026-05-06 18:04 | 35.82661 | 14.51402 | 1484 ft | 172 kts | 149° |
| 2026-05-06 18:04 | 35.81435 | 14.51860 | 1722 ft | 201 kts | 171° |
| 2026-05-06 18:05 | 35.79951 | 14.51542 | 1988 ft | 237 kts | 198° |
| 2026-05-06 18:05 | 35.78641 | 14.50131 | 2479 ft | 267 kts | 230° |
| 2026-05-06 18:05 | 35.77648 | 14.48149 | 3164 ft | 275 kts | 233° |
| 2026-05-06 18:05 | 35.76666 | 14.46116 | 3942 ft | 277 kts | 233° |
| 2026-05-06 18:06 | 35.75685 | 14.44073 | 4770 ft | 277 kts | 233° |
| 2026-05-06 18:06 | 35.74705 | 14.42032 | 5572 ft | 277 kts | 234° |
| 2026-05-06 18:06 | 35.73864 | 14.39892 | 6368 ft | 281 kts | 249° |
| 2026-05-06 18:06 | 35.73528 | 14.37505 | 7109 ft | 287 kts | 265° |
| 2026-05-06 18:07 | 35.73703 | 14.35045 | 7850 ft | 292 kts | 277° |
| 2026-05-06 18:07 | 35.74385 | 14.32664 | 8606 ft | 298 kts | 294° |
| 2026-05-06 18:07 | 35.75562 | 14.30546 | 9369 ft | 303 kts | 309° |
| 2026-05-06 18:07 | 35.77175 | 14.28843 | 10062 ft | 311 kts | 323° |
| 2026-05-06 18:08 | 35.79176 | 14.27703 | 10759 ft | 316 kts | 341° |
| 2026-05-06 18:08 | 35.81331 | 14.27296 | 11421 ft | 322 kts | 356° |
| 2026-05-06 18:08 | 35.83585 | 14.27339 | 11976 ft | 328 kts | 355° |
| 2026-05-06 18:08 | 35.85926 | 14.27138 | 12101 ft | 346 kts | 348° |
| 2026-05-06 18:09 | 35.88341 | 14.26553 | 12214 ft | 361 kts | 340° |
| 2026-05-06 18:09 | 35.90748 | 14.25572 | 12622 ft | 366 kts | 333° |
| 2026-05-06 18:09 | 35.93065 | 14.24271 | 13178 ft | 366 kts | 327° |
| 2026-05-06 18:09 | 35.95289 | 14.22746 | 13770 ft | 369 kts | 328° |
| 2026-05-06 18:10 | 35.97745 | 14.21697 | 14281 ft | 380 kts | 343° |
| 2026-05-06 18:10 | 36.00385 | 14.21240 | 14749 ft | 386 kts | 347° |
| 2026-05-06 18:10 | 36.03014 | 14.20608 | 15200 ft | 383 kts | 336° |
| 2026-05-06 18:10 | 36.05391 | 14.19244 | 15713 ft | 374 kts | 321° |
| 2026-05-06 18:11 | 36.07529 | 14.17422 | 16246 ft | 373 kts | 318° |
| 2026-05-06 18:11 | 36.09620 | 14.15523 | 16789 ft | 373 kts | 317° |
| 2026-05-06 18:11 | 36.11701 | 14.13595 | 17316 ft | 375 kts | 317° |
| 2026-05-06 18:11 | 36.13794 | 14.11667 | 17848 ft | 376 kts | 317° |
| 2026-05-06 18:12 | 36.15909 | 14.09747 | 18365 ft | 378 kts | 318° |
| 2026-05-06 18:12 | 36.18047 | 14.07831 | 18813 ft | 381 kts | 319° |
| 2026-05-06 18:12 | 36.20205 | 14.05913 | 19226 ft | 383 kts | 319° |
| 2026-05-06 18:12 | 36.22382 | 14.03985 | 19651 ft | 386 kts | 319° |
| 2026-05-06 18:13 | 36.24577 | 14.02041 | 20074 ft | 389 kts | 319° |
| 2026-05-06 18:13 | 36.26788 | 14.00084 | 20492 ft | 392 kts | 319° |
| 2026-05-06 18:13 | 36.29012 | 13.98111 | 20888 ft | 395 kts | 319° |
| 2026-05-06 18:13 | 36.31249 | 13.96121 | 21283 ft | 397 kts | 319° |
| 2026-05-06 18:14 | 36.33501 | 13.94114 | 21672 ft | 400 kts | 320° |
| 2026-05-06 18:14 | 36.35764 | 13.92093 | 22037 ft | 402 kts | 320° |
| 2026-05-06 18:14 | 36.38044 | 13.90055 | 22417 ft | 405 kts | 320° |
| 2026-05-06 18:14 | 36.40334 | 13.88010 | 22794 ft | 407 kts | 320° |
| 2026-05-06 18:15 | 36.42641 | 13.85948 | 23160 ft | 410 kts | 320° |
| 2026-05-06 18:15 | 36.44963 | 13.83873 | 23518 ft | 413 kts | 320° |
| 2026-05-06 18:15 | 36.47305 | 13.81776 | 23799 ft | 416 kts | 319° |
| 2026-05-06 18:15 | 36.49658 | 13.79666 | 24122 ft | 418 kts | 320° |
| 2026-05-06 18:16 | 36.52016 | 13.77550 | 24457 ft | 419 kts | 320° |
| 2026-05-06 18:16 | 36.54386 | 13.75425 | 24790 ft | 420 kts | 320° |
| 2026-05-06 18:16 | 36.56761 | 13.73296 | 25110 ft | 422 kts | 321° |
| 2026-05-06 18:16 | 36.59142 | 13.71157 | 25441 ft | 422 kts | 320° |
| 2026-05-06 18:17 | 36.61524 | 13.69014 | 25783 ft | 423 kts | 320° |
| 2026-05-06 18:17 | 36.63914 | 13.66864 | 26116 ft | 424 kts | 320° |
| 2026-05-06 18:17 | 36.66308 | 13.64715 | 26468 ft | 424 kts | 320° |
| 2026-05-06 18:17 | 36.68705 | 13.62559 | 26783 ft | 426 kts | 320° |
| 2026-05-06 18:18 | 36.71112 | 13.60389 | 27024 ft | 430 kts | 320° |
| 2026-05-06 18:18 | 36.73541 | 13.58194 | 27276 ft | 432 kts | 320° |
| 2026-05-06 18:18 | 36.75984 | 13.55985 | 27546 ft | 435 kts | 320° |
| 2026-05-06 18:18 | 36.78441 | 13.53765 | 27845 ft | 437 kts | 320° |
| 2026-05-06 18:19 | 36.80900 | 13.51539 | 28228 ft | 436 kts | 320° |
| 2026-05-06 18:19 | 36.83351 | 13.49320 | 28690 ft | 435 kts | 320° |
| 2026-05-06 18:19 | 36.85795 | 13.47109 | 29147 ft | 433 kts | 320° |
| 2026-05-06 18:19 | 36.88227 | 13.44906 | 29608 ft | 431 kts | 320° |
| 2026-05-06 18:20 | 36.90649 | 13.42710 | 30041 ft | 429 kts | 320° |
| 2026-05-06 18:20 | 36.93060 | 13.40518 | 30440 ft | 427 kts | 320° |
| 2026-05-06 18:20 | 36.95448 | 13.38346 | 30911 ft | 422 kts | 319° |
| 2026-05-06 18:20 | 36.97819 | 13.36192 | 31346 ft | 421 kts | 319° |
| 2026-05-06 18:21 | 37.00180 | 13.34042 | 31726 ft | 419 kts | 319° |
| 2026-05-06 18:21 | 37.02523 | 13.31906 | 32199 ft | 414 kts | 319° |
| 2026-05-06 18:21 | 37.04837 | 13.29795 | 32728 ft | 409 kts | 318° |
| 2026-05-06 18:21 | 37.07118 | 13.27711 | 33299 ft | 403 kts | 318° |
| 2026-05-06 18:22 | 37.09358 | 13.25659 | 33881 ft | 396 kts | 317° |
| 2026-05-06 18:22 | 37.11563 | 13.23638 | 34377 ft | 390 kts | 317° |
| 2026-05-06 18:22 | 37.13739 | 13.21645 | 34765 ft | 386 kts | 317° |
| 2026-05-06 18:22 | 37.15904 | 13.19660 | 34894 ft | 385 kts | 317° |
| 2026-05-06 18:23 | 37.20316 | 13.15607 | 34924 ft | 396 kts | 317° |
| 2026-05-06 18:23 | 37.24774 | 13.11509 | 34922 ft | 405 kts | 317° |
| 2026-05-06 18:24 | 37.29354 | 13.07298 | 34928 ft | 409 kts | 317° |
| 2026-05-06 18:24 | 37.34201 | 13.03376 | 34925 ft | 419 kts | 329° |
| 2026-05-06 18:25 | 37.39939 | 13.01472 | 34930 ft | 435 kts | 344° |
| 2026-05-06 18:25 | 37.45919 | 13.00338 | 34930 ft | 435 kts | 343° |
| 2026-05-06 18:26 | 37.51910 | 12.99170 | 34931 ft | 437 kts | 345° |
| 2026-05-06 18:26 | 37.57933 | 12.97979 | 34922 ft | 440 kts | 345° |
| 2026-05-06 18:27 | 37.63990 | 12.96798 | 34924 ft | 441 kts | 345° |
| 2026-05-06 18:27 | 37.70073 | 12.95623 | 34934 ft | 442 kts | 345° |
| 2026-05-06 18:28 | 37.76161 | 12.94440 | 34945 ft | 443 kts | 345° |
| 2026-05-06 18:28 | 37.82251 | 12.93244 | 34951 ft | 443 kts | 345° |
| 2026-05-06 18:29 | 37.88339 | 12.92041 | 34956 ft | 443 kts | 345° |
| 2026-05-06 18:29 | 37.94439 | 12.90845 | 34976 ft | 443 kts | 345° |
| 2026-05-06 18:30 | 37.99510 | 12.89849 | 34957 ft | 444 kts | 345° |
| 2026-05-06 18:30 | 38.05629 | 12.88640 | 34949 ft | 446 kts | 345° |
| 2026-05-06 18:31 | 38.11762 | 12.87432 | 34947 ft | 447 kts | 345° |
| 2026-05-06 18:31 | 38.17907 | 12.86220 | 34952 ft | 447 kts | 345° |
| 2026-05-06 18:32 | 38.24069 | 12.85003 | 34949 ft | 449 kts | 346° |
| 2026-05-06 18:32 | 38.30252 | 12.83777 | 34951 ft | 450 kts | 346° |
| 2026-05-06 18:33 | 38.36453 | 12.82543 | 34952 ft | 451 kts | 346° |
| 2026-05-06 18:33 | 38.42661 | 12.81300 | 34980 ft | 452 kts | 346° |
| 2026-05-06 18:34 | 38.48886 | 12.80053 | 34974 ft | 453 kts | 346° |
| 2026-05-06 18:34 | 38.55124 | 12.78815 | 34975 ft | 454 kts | 346° |
| 2026-05-06 18:35 | 38.61375 | 12.77563 | 34984 ft | 455 kts | 346° |
| 2026-05-06 18:35 | 38.67631 | 12.76300 | 35013 ft | 456 kts | 346° |
| 2026-05-06 18:36 | 38.73911 | 12.75037 | 34991 ft | 457 kts | 347° |
| 2026-05-06 18:36 | 38.80208 | 12.73775 | 34988 ft | 459 kts | 347° |
| 2026-05-06 18:37 | 38.86521 | 12.72510 | 34994 ft | 459 kts | 346° |
| 2026-05-06 18:37 | 38.92837 | 12.71229 | 35008 ft | 460 kts | 347° |
| 2026-05-06 18:38 | 38.99161 | 12.69957 | 35014 ft | 460 kts | 347° |
| 2026-05-06 18:38 | 39.05486 | 12.68678 | 35015 ft | 460 kts | 347° |
| 2026-05-06 18:39 | 39.11813 | 12.67382 | 35037 ft | 460 kts | 346° |
| 2026-05-06 18:40 | 39.21321 | 12.65445 | 35017 ft | 462 kts | 347° |
| 2026-05-06 18:40 | 39.27673 | 12.64156 | 35023 ft | 462 kts | 347° |
| 2026-05-06 18:41 | 39.34032 | 12.62858 | 35012 ft | 463 kts | 347° |
| 2026-05-06 18:41 | 39.40396 | 12.61549 | 35024 ft | 463 kts | 346° |
| 2026-05-06 18:42 | 39.46767 | 12.60234 | 35029 ft | 464 kts | 347° |
| 2026-05-06 18:42 | 39.53144 | 12.58932 | 35029 ft | 464 kts | 347° |
| 2026-05-06 18:43 | 39.59524 | 12.57626 | 35049 ft | 464 kts | 346° |
| 2026-05-06 18:43 | 39.65911 | 12.56317 | 35038 ft | 465 kts | 346° |
| 2026-05-06 18:44 | 39.72303 | 12.54996 | 35031 ft | 465 kts | 346° |
| 2026-05-06 18:44 | 39.78698 | 12.53663 | 35031 ft | 466 kts | 346° |
| 2026-05-06 18:45 | 39.85099 | 12.52323 | 35039 ft | 466 kts | 346° |
| 2026-05-06 18:45 | 39.91505 | 12.50986 | 35035 ft | 466 kts | 346° |
| 2026-05-06 18:46 | 39.97917 | 12.49663 | 35031 ft | 467 kts | 346° |
| 2026-05-06 18:46 | 40.04332 | 12.48333 | 35032 ft | 467 kts | 346° |
| 2026-05-06 18:47 | 40.10750 | 12.46991 | 35041 ft | 467 kts | 346° |
| 2026-05-06 18:47 | 40.17167 | 12.45638 | 35035 ft | 467 kts | 346° |
| 2026-05-06 18:48 | 40.23584 | 12.44285 | 35045 ft | 467 kts | 346° |
| 2026-05-06 18:48 | 40.30006 | 12.42940 | 35049 ft | 467 kts | 346° |
| 2026-05-06 18:49 | 40.36433 | 12.41589 | 35037 ft | 468 kts | 346° |
| 2026-05-06 18:49 | 40.42859 | 12.40227 | 35043 ft | 468 kts | 346° |
| 2026-05-06 18:50 | 40.49285 | 12.38868 | 35052 ft | 468 kts | 345° |
| 2026-05-06 18:50 | 40.55713 | 12.37516 | 35044 ft | 468 kts | 345° |
| 2026-05-06 18:51 | 40.62137 | 12.36157 | 35038 ft | 467 kts | 345° |
| 2026-05-06 18:51 | 40.68559 | 12.34781 | 35053 ft | 467 kts | 345° |
| 2026-05-06 18:52 | 40.74977 | 12.33403 | 35040 ft | 467 kts | 345° |
| 2026-05-06 18:52 | 40.81394 | 12.32030 | 35033 ft | 467 kts | 345° |
| 2026-05-06 18:53 | 40.87811 | 12.30670 | 35026 ft | 467 kts | 345° |
| 2026-05-06 18:53 | 40.94218 | 12.29241 | 35031 ft | 466 kts | 344° |
| 2026-05-06 18:54 | 41.00604 | 12.27716 | 35019 ft | 467 kts | 343° |
| 2026-05-06 18:54 | 41.06996 | 12.26179 | 35017 ft | 467 kts | 343° |
| 2026-05-06 18:55 | 41.13397 | 12.24659 | 35034 ft | 467 kts | 343° |
| 2026-05-06 18:55 | 41.19807 | 12.23162 | 35021 ft | 468 kts | 343° |
| 2026-05-06 18:56 | 41.26226 | 12.21658 | 35018 ft | 468 kts | 343° |
| 2026-05-06 18:56 | 41.32644 | 12.20126 | 35020 ft | 469 kts | 343° |
| 2026-05-06 18:57 | 41.39064 | 12.18593 | 35021 ft | 469 kts | 343° |
| 2026-05-06 18:57 | 41.45496 | 12.17064 | 35016 ft | 470 kts | 343° |
| 2026-05-06 18:58 | 41.51992 | 12.15878 | 35017 ft | 475 kts | 350° |
| 2026-05-06 18:58 | 41.58580 | 12.15229 | 35028 ft | 475 kts | 349° |
| 2026-05-06 18:59 | 41.65173 | 12.14571 | 35009 ft | 475 kts | 349° |
| 2026-05-06 18:59 | 41.71771 | 12.13916 | 34998 ft | 476 kts | 349° |
| 2026-05-06 19:00 | 41.78372 | 12.13263 | 34995 ft | 476 kts | 349° |
| 2026-05-06 19:00 | 41.84986 | 12.12608 | 34973 ft | 477 kts | 349° |
| 2026-05-06 19:01 | 41.91606 | 12.11953 | 34974 ft | 477 kts | 349° |
| 2026-05-06 19:01 | 41.98235 | 12.11287 | 35000 ft | 478 kts | 349° |
| 2026-05-06 19:02 | 42.04875 | 12.10626 | 34992 ft | 479 kts | 349° |
| 2026-05-06 19:02 | 42.11518 | 12.09963 | 34997 ft | 479 kts | 349° |
| 2026-05-06 19:03 | 42.18163 | 12.09293 | 35001 ft | 479 kts | 349° |
| 2026-05-06 19:03 | 42.24808 | 12.08619 | 35009 ft | 479 kts | 349° |